createdAt,value
2019-01-19T00:02:18.742Z,14.95
2019-01-19T00:05:15.074Z,18.82
2019-01-19T00:08:04.366Z,15.00
2019-01-19T00:10:44.777Z,17.00
2019-01-19T00:13:31.534Z,13.98
2019-01-19T00:16:03.021Z,11.97
2019-01-19T00:18:37.243Z,14.33
2019-01-19T00:21:20.477Z,18.30
2019-01-19T00:23:52.302Z,13.03
2019-01-19T00:26:35.913Z,14.85
2019-01-19T00:29:16.225Z,16.90
2019-01-19T00:31:50.564Z,12.23
2019-01-19T00:34:36.806Z,17.48
2019-01-19T00:37:11.543Z,13.45
2019-01-19T00:40:08.430Z,11.97
2019-01-19T00:42:45.678Z,9.73
2019-01-19T00:45:17.170Z,15.08
2019-01-19T00:48:22.261Z,14.93
2019-01-19T00:50:53.740Z,18.48
2019-01-19T00:53:25.241Z,14.65
2019-01-19T00:56:13.213Z,15.10
2019-01-19T00:58:47.934Z,15.15
2019-01-19T01:01:22.003Z,15.83
2019-01-19T01:04:13.130Z,13.00
2019-01-19T01:07:13.637Z,12.50
2019-01-19T01:09:59.983Z,10.85
2019-01-19T01:13:03.074Z,13.88
2019-01-19T01:15:34.820Z,13.68
2019-01-19T01:18:09.049Z,13.13
2019-01-19T01:21:07.786Z,11.33
2019-01-19T01:23:54.114Z,16.30
2019-01-19T01:26:37.637Z,15.32
2019-01-19T01:29:11.722Z,14.58
2019-01-19T01:31:46.313Z,16.50
2019-01-19T01:34:36.384Z,12.82
2019-01-19T01:37:19.519Z,15.88
2019-01-19T01:40:02.853Z,17.30
2019-01-19T01:42:42.909Z,13.80
2019-01-19T01:45:23.274Z,15.35
2019-01-19T01:48:00.539Z,12.75
2019-01-19T01:50:38.027Z,13.28
2019-01-19T01:53:30.725Z,16.23
2019-01-19T01:55:59.440Z,14.47
2019-01-19T01:58:50.198Z,17.05
2019-01-19T02:01:21.967Z,12.90
2019-01-19T02:03:56.365Z,12.65
2019-01-19T02:06:58.220Z,15.65
2019-01-19T02:09:38.445Z,18.12
2019-01-19T02:12:21.665Z,12.07
2019-01-19T02:14:58.366Z,15.40
2019-01-19T02:17:49.791Z,11.40
2019-01-19T02:20:26.882Z,10.48
2019-01-19T02:23:04.518Z,10.63
2019-01-19T02:25:55.687Z,16.20
2019-01-19T02:28:36.370Z,14.90
2019-01-19T02:31:10.463Z,15.83
2019-01-19T02:34:03.222Z,10.85
2019-01-19T02:36:35.062Z,12.18
2019-01-19T02:39:12.598Z,13.72
2019-01-19T02:42:02.560Z,22.00
2019-01-19T02:44:39.905Z,12.88
2019-01-19T02:47:37.368Z,8.33
2019-01-19T02:50:15.270Z,15.93
2019-01-19T02:52:52.517Z,11.80
2019-01-19T02:55:33.243Z,10.00
2019-01-19T02:58:20.991Z,11.28
2019-01-19T03:01:01.650Z,13.38
2019-01-19T03:03:45.091Z,12.15
2019-01-19T03:06:32.002Z,12.88
2019-01-19T03:09:22.957Z,17.50
2019-01-19T03:12:00.343Z,11.25
2019-01-19T03:14:34.533Z,13.85
2019-01-19T03:17:17.828Z,16.30
2019-01-19T03:19:49.611Z,13.68
2019-01-19T03:22:46.812Z,14.85
2019-01-19T03:25:24.240Z,10.60
2019-01-19T03:27:58.430Z,11.22
2019-01-19T03:30:41.698Z,20.02
2019-01-19T03:33:24.971Z,14.70
2019-01-19T03:36:04.517Z,14.83
2019-01-19T03:38:41.751Z,11.63
2019-01-19T03:41:13.233Z,18.20
2019-01-19T03:44:00.425Z,18.10
2019-01-19T03:46:40.353Z,22.25
2019-01-19T03:49:14.689Z,15.08
2019-01-19T03:52:00.842Z,17.65
2019-01-19T03:54:32.590Z,15.13
2019-01-19T03:57:06.702Z,15.58
2019-01-19T03:59:58.652Z,24.77
2019-01-19T04:02:44.983Z,12.95
2019-01-19T04:05:22.481Z,16.20
2019-01-19T04:07:54.213Z,16.30
2019-01-19T04:10:31.467Z,20.25
2019-01-19T04:13:26.210Z,13.68
2019-01-19T04:16:21.819Z,21.20
2019-01-19T04:19:08.645Z,20.10
2019-01-19T04:21:42.870Z,17.67
2019-01-19T04:24:20.009Z,17.17
2019-01-19T04:26:48.870Z,25.00
2019-01-19T04:29:17.317Z,17.42
2019-01-19T04:31:46.128Z,23.90
2019-01-19T04:34:15.047Z,20.35
2019-01-19T04:36:44.043Z,20.45
2019-01-19T04:39:12.501Z,18.10
2019-01-19T04:41:41.314Z,19.75
2019-01-19T04:44:10.178Z,19.23
2019-01-19T04:46:38.627Z,18.73
2019-01-19T04:49:07.517Z,30.45
2019-01-19T04:51:35.942Z,22.62
2019-01-19T04:54:04.484Z,18.85
2019-01-19T04:56:33.223Z,20.90
2019-01-19T04:59:02.017Z,26.65
2019-01-19T05:01:30.799Z,19.02
2019-01-19T05:03:59.293Z,20.55
2019-01-19T05:06:30.670Z,21.48
2019-01-19T05:08:58.111Z,20.92
2019-01-19T05:11:26.926Z,20.27
2019-01-19T05:13:55.330Z,29.35
2019-01-19T05:16:23.765Z,20.25
2019-01-19T05:18:52.462Z,19.92
2019-01-19T05:21:21.115Z,19.55
2019-01-19T05:23:50.000Z,18.27
2019-01-19T05:26:18.459Z,20.45
2019-01-19T05:28:46.876Z,21.82
2019-01-19T05:31:15.692Z,21.65
2019-01-19T05:33:44.101Z,21.20
2019-01-19T05:36:12.525Z,23.52
2019-01-19T05:38:40.979Z,32.13
2019-01-19T05:41:09.396Z,20.75
2019-01-19T05:43:37.809Z,23.50
2019-01-19T05:46:06.695Z,18.10
2019-01-19T05:48:35.101Z,22.87
2019-01-19T05:51:03.516Z,20.27
2019-01-19T05:53:31.938Z,17.77
2019-01-19T05:56:00.357Z,26.20
2019-01-19T05:58:29.063Z,20.65
2019-01-19T06:00:57.584Z,23.02
2019-01-19T06:03:26.316Z,23.73
2019-01-19T06:05:55.116Z,26.95
2019-01-19T06:08:23.912Z,26.52
2019-01-19T06:10:52.359Z,31.65
2019-01-19T06:13:20.780Z,21.90
2019-01-19T06:15:49.190Z,32.55
2019-01-19T06:18:17.903Z,26.37
2019-01-19T06:20:46.358Z,33.95
2019-01-19T06:23:14.787Z,28.50
2019-01-19T06:25:43.205Z,36.68
2019-01-19T06:28:11.634Z,27.85
2019-01-19T06:30:40.379Z,27.00
2019-01-19T06:33:08.797Z,27.50
2019-01-19T06:35:37.218Z,26.85
2019-01-19T06:38:05.710Z,29.82
2019-01-19T06:40:34.131Z,25.40
2019-01-19T06:43:02.551Z,25.70
2019-01-19T06:45:30.974Z,26.52
2019-01-19T06:47:59.689Z,25.60
2019-01-19T06:50:28.146Z,29.20
2019-01-19T06:52:56.645Z,25.65
2019-01-19T06:55:27.797Z,27.75
2019-01-19T06:57:56.319Z,23.52
2019-01-19T07:00:24.750Z,18.80
2019-01-19T07:02:53.181Z,22.65
2019-01-19T07:05:21.614Z,19.15
2019-01-19T07:07:50.023Z,24.52
2019-01-19T07:10:25.698Z,23.47
2019-01-19T07:12:54.112Z,21.52
2019-01-19T07:15:22.541Z,22.52
2019-01-19T07:17:50.952Z,25.55
2019-01-19T07:20:22.217Z,19.90
2019-01-19T07:22:50.992Z,20.12
2019-01-19T07:25:19.478Z,22.30
2019-01-19T07:27:48.173Z,16.45
2019-01-19T07:30:17.173Z,18.67
2019-01-19T07:32:46.961Z,19.95
2019-01-19T07:35:15.892Z,27.42
2019-01-19T07:37:44.341Z,17.07
2019-01-19T07:40:17.517Z,25.23
2019-01-19T07:42:48.615Z,19.85
2019-01-19T07:45:17.037Z,23.50
2019-01-19T07:47:45.726Z,16.93
2019-01-19T07:50:19.108Z,16.67
2019-01-19T07:52:47.513Z,19.90
2019-01-19T07:55:18.285Z,23.90
2019-01-19T07:57:46.865Z,15.85
2019-01-19T08:00:21.895Z,28.42
2019-01-19T08:02:50.693Z,14.10
2019-01-19T08:05:19.114Z,18.73
2019-01-19T08:07:47.530Z,16.70
2019-01-19T08:10:17.931Z,16.85
2019-01-19T08:12:46.678Z,25.40
2019-01-19T08:15:20.726Z,17.05
2019-01-19T08:17:49.138Z,18.70
2019-01-19T08:20:17.794Z,20.02
2019-01-19T08:22:46.276Z,20.72
2019-01-19T08:25:15.086Z,19.90
2019-01-19T08:27:43.607Z,15.53
2019-01-19T08:30:23.710Z,21.20
2019-01-19T08:32:52.201Z,21.85
2019-01-19T08:35:20.850Z,16.37
2019-01-19T08:37:49.784Z,13.03
2019-01-19T08:40:26.919Z,17.67
2019-01-19T08:43:02.799Z,20.95
2019-01-19T08:45:31.205Z,15.68
2019-01-19T08:48:00.061Z,14.83
2019-01-19T08:50:28.521Z,22.93
2019-01-19T08:52:57.593Z,23.73
2019-01-19T08:55:26.013Z,16.52
2019-01-19T08:57:54.458Z,15.90
2019-01-19T09:00:23.201Z,19.12
2019-01-19T09:02:51.670Z,14.20
2019-01-19T09:05:20.087Z,11.70
2019-01-19T09:07:48.899Z,15.25
2019-01-19T09:10:18.893Z,14.47
2019-01-19T09:12:47.395Z,13.48
2019-01-19T09:15:18.033Z,14.83
2019-01-19T09:17:46.470Z,12.13
2019-01-19T09:20:18.355Z,17.40
2019-01-19T09:22:48.531Z,14.23
2019-01-19T09:25:17.161Z,18.25
2019-01-19T09:27:45.657Z,17.10
2019-01-19T09:30:17.157Z,13.50
2019-01-19T09:32:45.908Z,22.32
2019-01-19T09:35:14.729Z,16.90
2019-01-19T09:37:43.266Z,13.78
2019-01-19T09:40:14.830Z,20.85
2019-01-19T09:42:43.408Z,15.60
2019-01-19T09:45:14.748Z,19.23
2019-01-19T09:47:43.317Z,16.10
2019-01-19T09:50:16.630Z,15.65
2019-01-19T09:52:45.293Z,12.47
2019-01-19T09:55:14.503Z,17.37
2019-01-19T09:57:42.995Z,17.30
2019-01-19T10:00:20.267Z,14.15
2019-01-19T10:02:48.714Z,15.48
2019-01-19T10:05:20.043Z,14.60
2019-01-19T10:07:48.994Z,14.87
2019-01-19T10:10:17.636Z,18.07
2019-01-19T10:12:46.361Z,12.07
2019-01-19T10:15:16.865Z,14.35
2019-01-19T10:17:45.743Z,13.15
2019-01-19T10:20:28.591Z,26.33
2019-01-19T10:22:57.378Z,14.07
2019-01-19T10:25:26.016Z,15.95
2019-01-19T10:27:54.675Z,12.53
2019-01-19T10:30:25.737Z,14.58
2019-01-19T10:32:54.473Z,13.83
2019-01-19T10:35:23.013Z,12.28
2019-01-19T10:37:56.157Z,11.93
2019-01-19T10:40:21.647Z,12.73
2019-01-19T10:42:50.106Z,13.05
2019-01-19T10:45:24.148Z,15.23
2019-01-19T10:47:52.600Z,15.38
2019-01-19T10:50:21.917Z,17.98
2019-01-19T10:52:50.334Z,12.65
2019-01-19T10:55:20.797Z,10.80
2019-01-19T10:57:49.217Z,10.98
2019-01-19T11:00:20.399Z,14.80
2019-01-19T11:02:48.810Z,12.95
2019-01-19T11:05:17.381Z,12.55
2019-01-19T11:07:47.862Z,12.28
2019-01-19T11:10:25.053Z,17.17
2019-01-19T11:12:53.623Z,11.65
2019-01-19T11:15:22.117Z,13.08
2019-01-19T11:17:50.640Z,10.32
2019-01-19T11:20:21.738Z,9.40
2019-01-19T11:22:50.239Z,11.35
2019-01-19T11:25:19.554Z,10.08
2019-01-19T11:27:48.002Z,13.08
2019-01-19T11:30:24.762Z,13.80
2019-01-19T11:32:53.267Z,13.60
2019-01-19T11:35:22.032Z,11.68
2019-01-19T11:37:50.830Z,14.30
2019-01-19T11:40:24.277Z,8.03
2019-01-19T11:42:52.733Z,9.48
2019-01-19T11:45:22.719Z,10.43
2019-01-19T11:47:51.230Z,10.25
2019-01-19T11:50:19.891Z,10.03
2019-01-19T11:52:48.525Z,9.20
2019-01-19T11:55:19.093Z,10.40
2019-01-19T11:57:49.045Z,9.73
2019-01-19T12:00:23.032Z,8.57
2019-01-19T12:02:51.579Z,11.43
2019-01-19T12:05:20.111Z,7.90
2019-01-19T12:07:48.719Z,6.33
2019-01-19T12:10:25.012Z,7.67
2019-01-19T12:12:53.425Z,12.80
2019-01-19T12:15:21.908Z,9.20
2019-01-19T12:17:50.511Z,10.20
2019-01-19T12:20:24.998Z,9.10
2019-01-19T12:22:53.803Z,9.13
2019-01-19T12:25:25.669Z,8.30
2019-01-19T12:27:54.199Z,8.77
2019-01-19T12:30:25.205Z,8.40
2019-01-19T12:32:53.797Z,10.43
2019-01-19T12:35:22.205Z,12.30
2019-01-19T12:37:50.743Z,7.83
2019-01-19T12:40:21.613Z,14.80
2019-01-19T12:42:51.981Z,10.03
2019-01-19T12:45:26.052Z,8.77
2019-01-19T12:47:54.500Z,10.67
2019-01-19T12:50:25.284Z,15.10
2019-01-19T12:52:53.685Z,7.60
2019-01-19T12:55:22.377Z,15.43
2019-01-19T12:57:50.818Z,9.67
2019-01-19T13:00:27.359Z,9.63
2019-01-19T13:02:57.999Z,9.37
2019-01-19T13:05:35.370Z,8.80
2019-01-19T13:08:06.535Z,7.80
2019-01-19T13:10:41.066Z,11.03
2019-01-19T13:13:10.287Z,10.73
2019-01-19T13:16:18.641Z,9.60
2019-01-19T13:18:50.174Z,9.47
2019-01-19T13:21:49.837Z,8.60
2019-01-19T13:24:30.166Z,8.73
2019-01-19T13:27:13.633Z,7.67
2019-01-19T13:30:17.821Z,8.27
2019-01-19T13:33:01.248Z,17.40
2019-01-19T13:35:41.692Z,6.47
2019-01-19T13:38:31.207Z,7.90
2019-01-19T13:41:35.836Z,8.40
2019-01-19T13:44:39.146Z,7.20
2019-01-19T13:47:37.902Z,6.80
2019-01-19T13:50:14.861Z,13.00
2019-01-19T13:53:07.923Z,9.83
2019-01-19T13:55:54.325Z,6.20
2019-01-19T13:58:28.426Z,4.93
2019-01-19T14:01:12.067Z,8.80
2019-01-19T14:03:46.760Z,10.47
2019-01-19T14:06:33.172Z,6.00
2019-01-19T14:09:31.291Z,9.87
2019-01-19T14:12:02.804Z,8.80
2019-01-19T14:14:49.299Z,9.50
2019-01-19T14:17:26.745Z,7.10
2019-01-19T14:20:16.624Z,8.80
2019-01-19T14:22:57.016Z,11.67
2019-01-19T14:25:28.541Z,7.43
2019-01-19T14:28:15.029Z,11.87
2019-01-19T14:30:51.761Z,13.00
2019-01-19T14:33:31.595Z,13.50
2019-01-19T14:36:09.426Z,11.33
2019-01-19T14:38:46.970Z,16.32
2019-01-19T14:41:51.591Z,12.82
2019-01-19T14:44:38.264Z,11.00
2019-01-19T14:47:15.808Z,8.55
2019-01-19T14:50:03.632Z,6.67
2019-01-19T14:53:07.948Z,9.85
2019-01-19T14:55:51.212Z,6.85
2019-01-19T14:58:31.450Z,11.68
2019-01-19T15:01:22.293Z,10.98
2019-01-19T15:04:02.304Z,14.55
2019-01-19T15:06:33.819Z,12.20
2019-01-19T15:09:13.889Z,7.97
2019-01-19T15:11:48.172Z,11.22
2019-01-19T15:14:40.679Z,10.18
2019-01-19T15:17:14.986Z,13.28
2019-01-19T15:20:20.326Z,6.62
2019-01-19T15:23:09.849Z,6.10
2019-01-19T15:26:00.771Z,8.40
2019-01-19T15:28:48.606Z,14.80
2019-01-19T15:31:22.844Z,8.40
2019-01-19T15:34:18.130Z,13.18
2019-01-19T15:37:07.319Z,7.35
2019-01-19T15:39:50.695Z,8.15
2019-01-19T15:42:27.439Z,6.25
2019-01-19T15:45:28.888Z,6.95
2019-01-19T15:48:22.377Z,8.60
2019-01-19T15:51:11.634Z,11.12
2019-01-19T15:53:45.815Z,7.90
2019-01-19T15:56:33.757Z,12.35
2019-01-19T15:59:17.232Z,8.48
2019-01-19T16:02:00.712Z,5.90
2019-01-19T16:04:47.278Z,5.83
2019-01-19T16:07:49.198Z,9.18
2019-01-19T16:10:38.801Z,5.70
2019-01-19T16:13:15.917Z,40.85
2019-01-19T16:15:53.018Z,7.47
2019-01-19T16:18:24.518Z,14.53
2019-01-19T16:21:01.270Z,7.05
2019-01-19T16:23:50.601Z,14.83
2019-01-19T16:26:34.334Z,10.78
2019-01-19T16:29:22.517Z,7.85
2019-01-19T16:32:11.894Z,5.45
2019-01-19T16:34:55.399Z,10.30
2019-01-19T16:37:38.498Z,8.68
2019-01-19T16:40:22.157Z,4.20
2019-01-19T16:43:14.383Z,10.40
2019-01-19T16:46:03.795Z,6.72
2019-01-19T16:48:35.441Z,7.97
2019-01-19T16:51:31.228Z,5.87
2019-01-19T16:54:06.187Z,8.78
2019-01-19T16:56:50.221Z,6.05
2019-01-19T16:59:21.802Z,6.65
2019-01-19T17:02:14.185Z,8.60
2019-01-19T17:04:51.237Z,8.63
2019-01-19T17:07:25.728Z,18.98
2019-01-19T17:10:03.799Z,7.80
2019-01-19T17:12:38.325Z,7.70
2019-01-19T17:15:27.534Z,29.65
2019-01-19T17:18:08.007Z,15.38
2019-01-19T17:20:51.520Z,19.73
2019-01-19T17:23:29.389Z,9.83
2019-01-19T17:26:06.242Z,13.43
2019-01-19T17:28:40.658Z,11.70
2019-01-19T17:31:24.374Z,12.25
2019-01-19T17:34:11.048Z,11.15
2019-01-19T17:36:42.529Z,10.10
2019-01-19T17:39:16.702Z,9.50
2019-01-19T17:42:21.584Z,10.18
2019-01-19T17:44:55.922Z,8.93
2019-01-19T17:47:45.738Z,10.82
2019-01-19T17:50:29.165Z,14.15
2019-01-19T17:53:06.783Z,16.23
2019-01-19T17:55:41.336Z,15.53
2019-01-19T17:58:21.616Z,10.68
2019-01-19T18:01:15.173Z,9.63
2019-01-19T18:04:05.950Z,10.65
2019-01-19T18:06:55.163Z,12.90
2019-01-19T18:09:29.230Z,10.93
2019-01-19T18:12:03.435Z,11.60
2019-01-19T18:14:49.999Z,14.43
2019-01-19T18:17:24.191Z,12.13
2019-01-19T18:19:58.399Z,11.15
2019-01-19T18:22:47.754Z,12.88
2019-01-19T18:25:25.166Z,13.62
2019-01-19T18:28:14.231Z,11.57
2019-01-19T18:31:00.508Z,13.13
2019-01-19T18:33:41.103Z,15.35
2019-01-19T18:36:27.010Z,17.05
2019-01-19T18:39:19.324Z,11.95
2019-01-19T18:41:50.919Z,12.88
2019-01-19T18:44:37.044Z,17.17
2019-01-19T18:47:35.422Z,12.60
2019-01-19T18:50:36.720Z,15.18
2019-01-19T18:53:29.163Z,11.90
2019-01-19T18:56:24.436Z,17.37
2019-01-19T18:59:04.779Z,13.65
2019-01-19T19:01:51.306Z,11.48
2019-01-19T19:04:58.493Z,12.33
2019-01-19T19:07:32.862Z,13.38
2019-01-19T19:10:16.516Z,12.85
2019-01-19T19:12:56.995Z,9.40
2019-01-19T19:15:37.187Z,12.37
2019-01-19T19:18:32.395Z,11.40
2019-01-19T19:21:09.761Z,18.80
2019-01-19T19:23:55.940Z,15.83
2019-01-19T19:27:00.447Z,21.95
2019-01-19T19:29:37.659Z,16.27
2019-01-19T19:32:17.980Z,17.05
2019-01-19T19:34:55.171Z,18.15
2019-01-19T19:37:41.658Z,14.87
2019-01-19T19:40:31.202Z,17.35
2019-01-19T19:43:22.120Z,10.35
2019-01-19T19:46:02.764Z,16.52
2019-01-19T19:48:48.988Z,13.83
2019-01-19T19:51:29.443Z,16.17
2019-01-19T19:53:58.203Z,14.40
2019-01-19T19:56:25.543Z,18.80
2019-01-19T19:58:54.013Z,23.32
2019-01-19T20:01:22.539Z,18.05
2019-01-19T20:03:52.022Z,16.48
2019-01-19T20:06:20.498Z,15.58
2019-01-19T20:08:48.948Z,16.23
2019-01-19T20:11:17.374Z,15.83
2019-01-19T20:13:45.799Z,16.30
2019-01-19T20:16:14.269Z,15.03
2019-01-19T20:18:42.694Z,15.08
2019-01-19T20:21:11.119Z,16.75
2019-01-19T20:23:39.581Z,19.92
2019-01-19T20:26:08.032Z,18.17
2019-01-19T20:28:36.434Z,19.02
2019-01-19T20:31:04.939Z,15.05
2019-01-19T20:33:33.401Z,22.75
2019-01-19T20:36:01.831Z,20.12
2019-01-19T20:38:30.540Z,21.75
2019-01-19T20:40:59.071Z,21.30
2019-01-19T20:43:27.503Z,17.35
2019-01-19T20:45:56.236Z,19.42
2019-01-19T20:48:24.845Z,16.30
2019-01-19T20:50:53.529Z,17.32
2019-01-19T20:53:22.046Z,19.92
2019-01-19T20:55:50.793Z,26.42
2019-01-19T20:58:19.250Z,19.12
2019-01-19T21:00:47.737Z,21.73
2019-01-19T21:03:16.267Z,18.67
2019-01-19T21:05:44.709Z,15.60
2019-01-19T21:08:13.130Z,30.10
2019-01-19T21:10:41.554Z,27.00
2019-01-19T21:13:10.304Z,26.02
2019-01-19T21:15:38.717Z,25.88
2019-01-19T21:18:07.181Z,24.60
2019-01-19T21:20:35.861Z,20.57
2019-01-19T21:23:04.401Z,29.87
2019-01-19T21:25:32.847Z,20.45
2019-01-19T21:28:01.270Z,20.88
2019-01-19T21:30:29.689Z,19.45
2019-01-19T21:32:58.122Z,23.65
2019-01-19T21:35:26.791Z,23.65
2019-01-19T21:37:55.621Z,21.23
2019-01-19T21:40:24.033Z,26.20
2019-01-19T21:42:52.473Z,29.90
2019-01-19T21:45:21.803Z,22.48
2019-01-19T21:47:50.220Z,21.23
2019-01-19T21:50:18.977Z,21.33
2019-01-19T21:52:47.747Z,21.30
2019-01-19T21:55:16.146Z,22.95
2019-01-19T21:57:44.644Z,20.95
2019-01-19T22:00:21.940Z,22.40
2019-01-19T22:02:50.830Z,33.45
2019-01-19T22:05:21.086Z,22.90
2019-01-19T22:07:49.525Z,27.30
2019-01-19T22:10:19.896Z,28.30
2019-01-19T22:12:48.386Z,27.30
2019-01-19T22:15:18.207Z,18.42
2019-01-19T22:17:46.625Z,26.23
2019-01-19T22:20:16.953Z,29.63
2019-01-19T22:22:45.462Z,26.17
2019-01-19T22:25:14.097Z,27.77
2019-01-19T22:27:44.209Z,34.60
2019-01-19T22:30:15.571Z,28.55
2019-01-19T22:32:43.986Z,28.42
2019-01-19T22:35:12.558Z,30.23
2019-01-19T22:37:41.228Z,23.52
2019-01-19T22:40:13.363Z,25.72
2019-01-19T22:42:41.777Z,20.77
2019-01-19T22:45:11.945Z,23.35
2019-01-19T22:47:40.365Z,24.12
2019-01-19T22:50:12.128Z,17.32
2019-01-19T22:52:40.650Z,24.95
2019-01-19T22:55:09.823Z,15.45
2019-01-19T22:57:38.512Z,19.20
2019-01-19T23:00:35.681Z,19.90
2019-01-19T23:03:04.160Z,18.92
2019-01-19T23:05:32.611Z,23.12
2019-01-19T23:08:01.120Z,20.35
2019-01-19T23:10:29.815Z,23.00
2019-01-19T23:12:58.273Z,16.85
2019-01-19T23:15:26.736Z,18.55
2019-01-19T23:17:55.137Z,31.12
2019-01-19T23:20:23.607Z,23.25
2019-01-19T23:22:52.025Z,18.73
2019-01-19T23:25:20.739Z,21.62
2019-01-19T23:27:49.194Z,23.35
2019-01-19T23:30:17.858Z,18.85
2019-01-19T23:32:46.270Z,19.73
2019-01-19T23:35:14.942Z,18.30
2019-01-19T23:37:43.589Z,20.23
2019-01-19T23:40:13.709Z,21.60
2019-01-19T23:42:47.095Z,19.35
2019-01-19T23:45:12.505Z,21.17
2019-01-19T23:47:41.228Z,15.32
2019-01-19T23:50:10.983Z,18.32
2019-01-19T23:52:39.558Z,19.00
2019-01-19T23:55:08.098Z,17.35
2019-01-19T23:57:36.526Z,25.95
